sensor_id;sensor_type;location;lat;lon;timestamp;P1;durP1;ratioP1;P2;durP2;ratioP2
33810;SDS011;20119;48.334;16.206;2023-02-01T00:21:36;3.05;;;2.28;;
33810;SDS011;20119;48.334;16.206;2023-02-01T00:31:50;3.03;;;2.50;;
33810;SDS011;20119;48.334;16.206;2023-02-01T00:34:17;2.95;;;2.40;;
33810;SDS011;20119;48.334;16.206;2023-02-01T00:39:22;3.08;;;2.03;;
33810;SDS011;20119;48.334;16.206;2023-02-01T00:44:24;3.53;;;2.47;;
33810;SDS011;20119;48.334;16.206;2023-02-01T00:49:27;3.58;;;2.63;;
33810;SDS011;20119;48.334;16.206;2023-02-01T00:51:54;2.95;;;2.45;;
33810;SDS011;20119;48.334;16.206;2023-02-01T00:54:23;3.83;;;2.80;;
33810;SDS011;20119;48.334;16.206;2023-02-01T00:59:25;2.92;;;2.45;;
33810;SDS011;20119;48.334;16.206;2023-02-01T01:01:52;3.42;;;2.80;;
33810;SDS011;20119;48.334;16.206;2023-02-01T01:04:19;4.65;;;3.50;;
33810;SDS011;20119;48.334;16.206;2023-02-01T01:11:59;4.47;;;3.38;;
33810;SDS011;20119;48.334;16.206;2023-02-01T01:19:38;4.75;;;3.40;;
33810;SDS011;20119;48.334;16.206;2023-02-01T01:34:55;3.10;;;2.80;;
33810;SDS011;20119;48.334;16.206;2023-02-01T01:45:16;2.90;;;2.30;;
33810;SDS011;20119;48.334;16.206;2023-02-01T01:47:48;3.50;;;2.38;;
33810;SDS011;20119;48.334;16.206;2023-02-01T01:50:28;2.70;;;2.45;;
33810;SDS011;20119;48.334;16.206;2023-02-01T01:58:09;4.22;;;3.22;;
33810;SDS011;20119;48.334;16.206;2023-02-01T02:00:40;4.05;;;3.22;;
33810;SDS011;20119;48.334;16.206;2023-02-01T02:03:09;4.25;;;3.40;;
33810;SDS011;20119;48.334;16.206;2023-02-01T02:05:42;3.97;;;3.40;;
33810;SDS011;20119;48.334;16.206;2023-02-01T02:08:10;4.17;;;3.50;;
33810;SDS011;20119;48.334;16.206;2023-02-01T02:13:14;4.38;;;3.97;;
33810;SDS011;20119;48.334;16.206;2023-02-01T02:31:20;4.18;;;3.65;;
33810;SDS011;20119;48.334;16.206;2023-02-01T02:34:10;3.97;;;3.58;;
33810;SDS011;20119;48.334;16.206;2023-02-01T02:36:47;3.75;;;3.45;;
33810;SDS011;20119;48.334;16.206;2023-02-01T02:39:21;4.63;;;3.83;;
33810;SDS011;20119;48.334;16.206;2023-02-01T02:41:58;5.07;;;3.58;;
33810;SDS011;20119;48.334;16.206;2023-02-01T02:44:53;4.47;;;3.80;;
33810;SDS011;20119;48.334;16.206;2023-02-01T03:00:39;7.40;;;4.60;;
33810;SDS011;20119;48.334;16.206;2023-02-01T03:03:25;5.25;;;4.75;;
33810;SDS011;20119;48.334;16.206;2023-02-01T03:06:12;6.32;;;4.80;;
33810;SDS011;20119;48.334;16.206;2023-02-01T03:08:42;4.97;;;4.20;;
33810;SDS011;20119;48.334;16.206;2023-02-01T03:11:10;4.70;;;4.05;;
33810;SDS011;20119;48.334;16.206;2023-02-01T03:13:41;5.63;;;3.40;;
33810;SDS011;20119;48.334;16.206;2023-02-01T03:16:12;3.97;;;3.58;;
33810;SDS011;20119;48.334;16.206;2023-02-01T03:18:48;5.55;;;3.58;;
33810;SDS011;20119;48.334;16.206;2023-02-01T03:21:19;5.40;;;3.58;;
33810;SDS011;20119;48.334;16.206;2023-02-01T03:23:50;6.40;;;3.50;;
33810;SDS011;20119;48.334;16.206;2023-02-01T03:26:19;6.30;;;3.53;;
33810;SDS011;20119;48.334;16.206;2023-02-01T03:28:49;4.20;;;3.63;;
33810;SDS011;20119;48.334;16.206;2023-02-01T03:31:22;4.20;;;3.80;;
33810;SDS011;20119;48.334;16.206;2023-02-01T03:33:50;3.83;;;3.53;;
33810;SDS011;20119;48.334;16.206;2023-02-01T03:36:18;4.65;;;3.83;;
33810;SDS011;20119;48.334;16.206;2023-02-01T03:38:54;7.20;;;3.63;;
33810;SDS011;20119;48.334;16.206;2023-02-01T03:41:27;4.97;;;3.80;;
33810;SDS011;20119;48.334;16.206;2023-02-01T03:44:01;5.18;;;3.53;;
33810;SDS011;20119;48.334;16.206;2023-02-01T03:46:35;4.80;;;4.30;;
33810;SDS011;20119;48.334;16.206;2023-02-01T03:49:05;4.53;;;3.70;;
33810;SDS011;20119;48.334;16.206;2023-02-01T03:51:35;5.18;;;3.75;;
33810;SDS011;20119;48.334;16.206;2023-02-01T03:54:04;4.50;;;3.95;;
33810;SDS011;20119;48.334;16.206;2023-02-01T03:56:35;4.93;;;4.10;;
33810;SDS011;20119;48.334;16.206;2023-02-01T03:59:04;5.40;;;3.97;;
33810;SDS011;20119;48.334;16.206;2023-02-01T04:01:31;5.63;;;3.97;;
33810;SDS011;20119;48.334;16.206;2023-02-01T04:04:00;7.57;;;4.55;;
33810;SDS011;20119;48.334;16.206;2023-02-01T04:06:27;5.78;;;4.40;;
33810;SDS011;20119;48.334;16.206;2023-02-01T04:08:54;6.03;;;4.60;;
33810;SDS011;20119;48.334;16.206;2023-02-01T04:16:31;6.97;;;4.78;;
33810;SDS011;20119;48.334;16.206;2023-02-01T04:19:00;6.00;;;4.72;;
33810;SDS011;20119;48.334;16.206;2023-02-01T04:21:28;6.85;;;5.13;;
33810;SDS011;20119;48.334;16.206;2023-02-01T04:23:56;5.55;;;4.80;;
33810;SDS011;20119;48.334;16.206;2023-02-01T04:28:54;5.32;;;4.82;;
33810;SDS011;20119;48.334;16.206;2023-02-01T04:31:21;6.85;;;5.20;;
33810;SDS011;20119;48.334;16.206;2023-02-01T04:36:27;6.85;;;5.13;;
33810;SDS011;20119;48.334;16.206;2023-02-01T04:38:54;5.78;;;5.07;;
33810;SDS011;20119;48.334;16.206;2023-02-01T04:41:20;7.47;;;5.50;;
33810;SDS011;20119;48.334;16.206;2023-02-01T04:43:48;5.60;;;4.82;;
33810;SDS011;20119;48.334;16.206;2023-02-01T04:54:05;5.95;;;5.32;;
33810;SDS011;20119;48.334;16.206;2023-02-01T04:56:32;7.22;;;4.68;;
33810;SDS011;20119;48.334;16.206;2023-02-01T05:11:58;5.95;;;4.32;;
33810;SDS011;20119;48.334;16.206;2023-02-01T05:14:43;4.75;;;4.10;;
33810;SDS011;20119;48.334;16.206;2023-02-01T05:17:10;5.25;;;4.47;;
33810;SDS011;20119;48.334;16.206;2023-02-01T05:19:37;5.65;;;4.10;;
33810;SDS011;20119;48.334;16.206;2023-02-01T05:22:04;4.88;;;4.18;;
33810;SDS011;20119;48.334;16.206;2023-02-01T05:24:30;7.00;;;4.72;;
33810;SDS011;20119;48.334;16.206;2023-02-01T05:29:36;6.45;;;4.63;;
33810;SDS011;20119;48.334;16.206;2023-02-01T05:34:59;7.18;;;5.10;;
33810;SDS011;20119;48.334;16.206;2023-02-01T05:37:26;6.43;;;5.50;;
33810;SDS011;20119;48.334;16.206;2023-02-01T05:39:53;6.60;;;5.60;;
33810;SDS011;20119;48.334;16.206;2023-02-01T05:42:20;6.53;;;5.18;;
33810;SDS011;20119;48.334;16.206;2023-02-01T05:47:18;7.43;;;5.45;;
33810;SDS011;20119;48.334;16.206;2023-02-01T05:52:21;5.93;;;5.28;;
33810;SDS011;20119;48.334;16.206;2023-02-01T05:54:48;6.85;;;4.80;;
33810;SDS011;20119;48.334;16.206;2023-02-01T05:57:15;5.72;;;4.90;;
33810;SDS011;20119;48.334;16.206;2023-02-01T05:59:42;5.25;;;4.57;;
33810;SDS011;20119;48.334;16.206;2023-02-01T06:02:10;5.97;;;4.95;;
33810;SDS011;20119;48.334;16.206;2023-02-01T06:07:09;5.85;;;4.60;;
33810;SDS011;20119;48.334;16.206;2023-02-01T06:09:36;5.63;;;4.15;;
33810;SDS011;20119;48.334;16.206;2023-02-01T06:14:49;5.43;;;4.53;;
33810;SDS011;20119;48.334;16.206;2023-02-01T06:17:16;6.40;;;4.95;;
33810;SDS011;20119;48.334;16.206;2023-02-01T06:19:43;6.43;;;4.88;;
33810;SDS011;20119;48.334;16.206;2023-02-01T06:22:14;5.90;;;4.97;;
33810;SDS011;20119;48.334;16.206;2023-02-01T06:32:27;7.00;;;4.47;;
33810;SDS011;20119;48.334;16.206;2023-02-01T06:34:54;8.00;;;5.07;;
33810;SDS011;20119;48.334;16.206;2023-02-01T06:37:24;5.80;;;4.70;;
33810;SDS011;20119;48.334;16.206;2023-02-01T06:40:02;5.95;;;4.68;;
33810;SDS011;20119;48.334;16.206;2023-02-01T06:47:40;5.20;;;4.38;;
33810;SDS011;20119;48.334;16.206;2023-02-01T06:52:44;6.03;;;4.60;;
33810;SDS011;20119;48.334;16.206;2023-02-01T06:55:10;7.60;;;4.20;;
33810;SDS011;20119;48.334;16.206;2023-02-01T06:57:38;5.30;;;4.60;;
33810;SDS011;20119;48.334;16.206;2023-02-01T07:00:05;5.18;;;4.40;;
33810;SDS011;20119;48.334;16.206;2023-02-01T07:02:33;6.30;;;4.30;;
33810;SDS011;20119;48.334;16.206;2023-02-01T07:04:59;4.97;;;4.13;;
33810;SDS011;20119;48.334;16.206;2023-02-01T07:07:26;6.20;;;4.07;;
33810;SDS011;20119;48.334;16.206;2023-02-01T07:09:56;7.28;;;4.38;;
33810;SDS011;20119;48.334;16.206;2023-02-01T07:12:29;6.88;;;4.40;;
33810;SDS011;20119;48.334;16.206;2023-02-01T07:15:09;5.30;;;3.90;;
33810;SDS011;20119;48.334;16.206;2023-02-01T07:22:47;5.55;;;4.07;;
33810;SDS011;20119;48.334;16.206;2023-02-01T07:25:15;4.85;;;3.83;;
33810;SDS011;20119;48.334;16.206;2023-02-01T07:33:02;4.43;;;3.88;;
33810;SDS011;20119;48.334;16.206;2023-02-01T07:35:29;5.47;;;3.55;;
33810;SDS011;20119;48.334;16.206;2023-02-01T07:37:57;5.18;;;3.90;;
33810;SDS011;20119;48.334;16.206;2023-02-01T07:40:25;4.53;;;3.70;;
33810;SDS011;20119;48.334;16.206;2023-02-01T07:42:53;5.80;;;4.00;;
33810;SDS011;20119;48.334;16.206;2023-02-01T07:45:21;5.03;;;4.05;;
33810;SDS011;20119;48.334;16.206;2023-02-01T07:47:48;4.32;;;3.63;;
33810;SDS011;20119;48.334;16.206;2023-02-01T07:50:15;4.80;;;3.90;;
33810;SDS011;20119;48.334;16.206;2023-02-01T07:52:42;4.80;;;3.92;;
33810;SDS011;20119;48.334;16.206;2023-02-01T08:03:03;5.97;;;4.20;;
33810;SDS011;20119;48.334;16.206;2023-02-01T08:05:30;4.63;;;4.05;;
33810;SDS011;20119;48.334;16.206;2023-02-01T08:07:57;4.72;;;4.22;;
33810;SDS011;20119;48.334;16.206;2023-02-01T08:15:31;6.60;;;4.70;;
33810;SDS011;20119;48.334;16.206;2023-02-01T08:17:58;6.10;;;4.95;;
33810;SDS011;20119;48.334;16.206;2023-02-01T08:20:27;6.65;;;4.88;;
33810;SDS011;20119;48.334;16.206;2023-02-01T08:22:54;5.45;;;4.43;;
33810;SDS011;20119;48.334;16.206;2023-02-01T08:25:21;6.30;;;4.65;;
33810;SDS011;20119;48.334;16.206;2023-02-01T08:27:49;6.47;;;4.20;;
33810;SDS011;20119;48.334;16.206;2023-02-01T08:38:04;5.22;;;4.40;;
33810;SDS011;20119;48.334;16.206;2023-02-01T08:40:31;6.15;;;4.43;;
33810;SDS011;20119;48.334;16.206;2023-02-01T08:42:58;5.70;;;4.50;;
33810;SDS011;20119;48.334;16.206;2023-02-01T08:48:01;5.25;;;4.40;;
33810;SDS011;20119;48.334;16.206;2023-02-01T08:50:28;6.05;;;4.38;;
33810;SDS011;20119;48.334;16.206;2023-02-01T08:58:07;6.07;;;4.75;;
33810;SDS011;20119;48.334;16.206;2023-02-01T09:00:34;5.80;;;4.72;;
33810;SDS011;20119;48.334;16.206;2023-02-01T09:05:36;6.55;;;5.00;;
33810;SDS011;20119;48.334;16.206;2023-02-01T09:08:03;7.95;;;5.07;;
33810;SDS011;20119;48.334;16.206;2023-02-01T09:10:31;5.90;;;4.82;;
33810;SDS011;20119;48.334;16.206;2023-02-01T09:12:58;7.28;;;5.18;;
33810;SDS011;20119;48.334;16.206;2023-02-01T09:17:53;7.88;;;5.53;;
33810;SDS011;20119;48.334;16.206;2023-02-01T09:20:20;8.15;;;5.15;;
33810;SDS011;20119;48.334;16.206;2023-02-01T09:22:49;6.00;;;5.32;;
33810;SDS011;20119;48.334;16.206;2023-02-01T09:27:51;7.47;;;5.32;;
33810;SDS011;20119;48.334;16.206;2023-02-01T09:30:18;6.10;;;4.97;;
33810;SDS011;20119;48.334;16.206;2023-02-01T09:32:47;6.45;;;5.10;;
33810;SDS011;20119;48.334;16.206;2023-02-01T09:40:24;6.70;;;5.18;;
33810;SDS011;20119;48.334;16.206;2023-02-01T09:42:57;7.43;;;5.00;;
33810;SDS011;20119;48.334;16.206;2023-02-01T09:50:48;5.18;;;4.25;;
33810;SDS011;20119;48.334;16.206;2023-02-01T09:55:47;5.65;;;4.63;;
33810;SDS011;20119;48.334;16.206;2023-02-01T09:58:18;4.88;;;3.75;;
33810;SDS011;20119;48.334;16.206;2023-02-01T10:00:50;5.35;;;3.95;;
33810;SDS011;20119;48.334;16.206;2023-02-01T10:05:53;5.30;;;3.80;;
33810;SDS011;20119;48.334;16.206;2023-02-01T10:08:32;4.63;;;3.80;;
33810;SDS011;20119;48.334;16.206;2023-02-01T10:11:08;4.50;;;3.30;;
33810;SDS011;20119;48.334;16.206;2023-02-01T10:13:50;5.22;;;3.80;;
33810;SDS011;20119;48.334;16.206;2023-02-01T10:16:23;3.95;;;2.97;;
33810;SDS011;20119;48.334;16.206;2023-02-01T10:19:00;4.00;;;3.20;;
33810;SDS011;20119;48.334;16.206;2023-02-01T10:24:34;3.42;;;2.83;;
33810;SDS011;20119;48.334;16.206;2023-02-01T10:27:09;4.10;;;2.88;;
33810;SDS011;20119;48.334;16.206;2023-02-01T10:29:40;5.15;;;3.00;;
33810;SDS011;20119;48.334;16.206;2023-02-01T10:32:12;3.50;;;2.72;;
33810;SDS011;20119;48.334;16.206;2023-02-01T10:34:41;3.47;;;2.65;;
33810;SDS011;20119;48.334;16.206;2023-02-01T10:37:13;3.95;;;3.10;;
33810;SDS011;20119;48.334;16.206;2023-02-01T10:39:48;4.38;;;2.78;;
33810;SDS011;20119;48.334;16.206;2023-02-01T10:47:27;4.85;;;3.17;;
33810;SDS011;20119;48.334;16.206;2023-02-01T10:49:55;5.50;;;2.95;;
33810;SDS011;20119;48.334;16.206;2023-02-01T10:58:17;5.75;;;3.78;;
33810;SDS011;20119;48.334;16.206;2023-02-01T11:00:47;4.60;;;3.35;;
33810;SDS011;20119;48.334;16.206;2023-02-01T11:03:32;4.70;;;3.53;;
33810;SDS011;20119;48.334;16.206;2023-02-01T11:06:13;5.57;;;3.85;;
33810;SDS011;20119;48.334;16.206;2023-02-01T11:11:23;6.90;;;4.38;;
33810;SDS011;20119;48.334;16.206;2023-02-01T11:13:54;6.45;;;4.20;;
33810;SDS011;20119;48.334;16.206;2023-02-01T11:16:28;5.53;;;4.40;;
33810;SDS011;20119;48.334;16.206;2023-02-01T11:24:11;5.80;;;4.05;;
33810;SDS011;20119;48.334;16.206;2023-02-01T11:26:47;5.40;;;4.00;;
33810;SDS011;20119;48.334;16.206;2023-02-01T11:29:19;4.97;;;4.18;;
33810;SDS011;20119;48.334;16.206;2023-02-01T11:34:36;5.28;;;3.90;;
33810;SDS011;20119;48.334;16.206;2023-02-01T11:37:05;7.15;;;4.22;;
33810;SDS011;20119;48.334;16.206;2023-02-01T11:39:47;3.95;;;3.35;;
33810;SDS011;20119;48.334;16.206;2023-02-01T11:42:20;5.53;;;3.17;;
33810;SDS011;20119;48.334;16.206;2023-02-01T11:44:49;4.00;;;3.30;;
33810;SDS011;20119;48.334;16.206;2023-02-01T11:47:20;5.28;;;2.78;;
33810;SDS011;20119;48.334;16.206;2023-02-01T11:49:49;5.13;;;2.78;;
33810;SDS011;20119;48.334;16.206;2023-02-01T11:52:18;4.32;;;2.90;;
33810;SDS011;20119;48.334;16.206;2023-02-01T11:58:00;4.60;;;2.75;;
33810;SDS011;20119;48.334;16.206;2023-02-01T12:00:43;4.18;;;2.92;;
33810;SDS011;20119;48.334;16.206;2023-02-01T12:03:36;5.65;;;3.22;;
33810;SDS011;20119;48.334;16.206;2023-02-01T12:06:18;5.00;;;3.30;;
33810;SDS011;20119;48.334;16.206;2023-02-01T12:08:56;6.72;;;4.03;;
33810;SDS011;20119;48.334;16.206;2023-02-01T12:11:45;4.55;;;3.53;;
33810;SDS011;20119;48.334;16.206;2023-02-01T12:17:11;5.63;;;3.55;;
33810;SDS011;20119;48.334;16.206;2023-02-01T12:22:34;4.72;;;3.63;;
33810;SDS011;20119;48.334;16.206;2023-02-01T12:25:20;4.47;;;3.20;;
33810;SDS011;20119;48.334;16.206;2023-02-01T12:31:05;4.38;;;3.38;;
33810;SDS011;20119;48.334;16.206;2023-02-01T12:33:50;4.40;;;3.42;;
33810;SDS011;20119;48.334;16.206;2023-02-01T12:39:04;3.97;;;3.00;;
33810;SDS011;20119;48.334;16.206;2023-02-01T12:41:42;3.30;;;3.00;;
33810;SDS011;20119;48.334;16.206;2023-02-01T12:44:24;3.05;;;2.47;;
33810;SDS011;20119;48.334;16.206;2023-02-01T12:46:57;2.38;;;2.15;;
33810;SDS011;20119;48.334;16.206;2023-02-01T12:49:30;2.95;;;2.15;;
33810;SDS011;20119;48.334;16.206;2023-02-01T12:57:12;2.60;;;1.35;;
33810;SDS011;20119;48.334;16.206;2023-02-01T12:59:44;3.03;;;1.55;;
33810;SDS011;20119;48.334;16.206;2023-02-01T13:02:16;1.27;;;0.90;;
33810;SDS011;20119;48.334;16.206;2023-02-01T13:04:54;2.13;;;1.17;;
33810;SDS011;20119;48.334;16.206;2023-02-01T13:07:29;2.05;;;1.15;;
33810;SDS011;20119;48.334;16.206;2023-02-01T13:10:02;2.53;;;1.10;;
33810;SDS011;20119;48.334;16.206;2023-02-01T13:12:35;1.95;;;0.85;;
33810;SDS011;20119;48.334;16.206;2023-02-01T13:15:09;2.00;;;1.00;;
33810;SDS011;20119;48.334;16.206;2023-02-01T13:17:40;1.88;;;1.30;;
33810;SDS011;20119;48.334;16.206;2023-02-01T13:20:13;3.38;;;1.67;;
33810;SDS011;20119;48.334;16.206;2023-02-01T13:22:46;3.05;;;1.80;;
33810;SDS011;20119;48.334;16.206;2023-02-01T13:25:17;2.88;;;2.03;;
33810;SDS011;20119;48.334;16.206;2023-02-01T13:27:52;2.80;;;1.80;;
33810;SDS011;20119;48.334;16.206;2023-02-01T13:36:06;1.23;;;0.90;;
33810;SDS011;20119;48.334;16.206;2023-02-01T13:38:54;1.58;;;0.82;;
33810;SDS011;20119;48.334;16.206;2023-02-01T13:41:51;1.70;;;0.90;;
33810;SDS011;20119;48.334;16.206;2023-02-01T13:44:22;1.42;;;0.80;;
33810;SDS011;20119;48.334;16.206;2023-02-01T13:46:54;0.73;;;0.70;;
33810;SDS011;20119;48.334;16.206;2023-02-01T13:49:24;1.05;;;0.73;;
33810;SDS011;20119;48.334;16.206;2023-02-01T13:52:23;0.82;;;0.68;;
33810;SDS011;20119;48.334;16.206;2023-02-01T13:55:13;2.08;;;0.70;;
33810;SDS011;20119;48.334;16.206;2023-02-01T13:57:49;1.20;;;0.55;;
33810;SDS011;20119;48.334;16.206;2023-02-01T14:06:00;1.83;;;0.73;;
33810;SDS011;20119;48.334;16.206;2023-02-01T14:08:46;2.92;;;1.10;;
33810;SDS011;20119;48.334;16.206;2023-02-01T14:11:42;1.83;;;1.20;;
33810;SDS011;20119;48.334;16.206;2023-02-01T14:23:22;3.95;;;1.73;;
33810;SDS011;20119;48.334;16.206;2023-02-01T14:26:03;3.58;;;2.20;;
33810;SDS011;20119;48.334;16.206;2023-02-01T14:28:38;5.07;;;2.65;;
33810;SDS011;20119;48.334;16.206;2023-02-01T14:31:30;3.63;;;1.83;;
33810;SDS011;20119;48.334;16.206;2023-02-01T14:39:18;1.70;;;1.27;;
33810;SDS011;20119;48.334;16.206;2023-02-01T14:41:59;0.80;;;0.80;;
33810;SDS011;20119;48.334;16.206;2023-02-01T14:44:33;0.90;;;0.70;;
33810;SDS011;20119;48.334;16.206;2023-02-01T14:47:02;0.60;;;0.50;;
33810;SDS011;20119;48.334;16.206;2023-02-01T14:57:18;0.57;;;0.50;;
33810;SDS011;20119;48.334;16.206;2023-02-01T14:59:47;0.50;;;0.50;;
33810;SDS011;20119;48.334;16.206;2023-02-01T15:04:55;1.05;;;0.70;;
33810;SDS011;20119;48.334;16.206;2023-02-01T15:07:23;0.60;;;0.60;;
33810;SDS011;20119;48.334;16.206;2023-02-01T15:12:23;1.80;;;1.00;;
33810;SDS011;20119;48.334;16.206;2023-02-01T15:15:12;2.15;;;1.27;;
33810;SDS011;20119;48.334;16.206;2023-02-01T15:22:53;2.78;;;1.92;;
33810;SDS011;20119;48.334;16.206;2023-02-01T15:25:23;3.05;;;1.90;;
33810;SDS011;20119;48.334;16.206;2023-02-01T15:27:53;2.28;;;2.00;;
33810;SDS011;20119;48.334;16.206;2023-02-01T15:33:04;4.47;;;2.83;;
33810;SDS011;20119;48.334;16.206;2023-02-01T15:35:34;3.15;;;2.40;;
33810;SDS011;20119;48.334;16.206;2023-02-01T15:41:02;5.15;;;2.33;;
33810;SDS011;20119;48.334;16.206;2023-02-01T15:43:33;2.90;;;2.33;;
33810;SDS011;20119;48.334;16.206;2023-02-01T15:46:03;4.65;;;2.47;;
33810;SDS011;20119;48.334;16.206;2023-02-01T15:53:46;3.83;;;2.30;;
33810;SDS011;20119;48.334;16.206;2023-02-01T15:58:53;3.55;;;2.17;;
33810;SDS011;20119;48.334;16.206;2023-02-01T16:01:23;3.00;;;2.40;;
33810;SDS011;20119;48.334;16.206;2023-02-01T16:04:00;5.75;;;2.58;;
33810;SDS011;20119;48.334;16.206;2023-02-01T16:06:30;5.23;;;2.70;;
33810;SDS011;20119;48.334;16.206;2023-02-01T16:09:07;3.88;;;2.80;;
33810;SDS011;20119;48.334;16.206;2023-02-01T16:11:40;7.30;;;2.80;;
33810;SDS011;20119;48.334;16.206;2023-02-01T16:14:14;4.82;;;2.55;;
33810;SDS011;20119;48.334;16.206;2023-02-01T16:16:41;4.00;;;2.30;;
33810;SDS011;20119;48.334;16.206;2023-02-01T16:19:08;5.97;;;2.35;;
33810;SDS011;20119;48.334;16.206;2023-02-01T16:24:11;3.17;;;1.90;;
33810;SDS011;20119;48.334;16.206;2023-02-01T16:26:38;5.63;;;2.05;;
33810;SDS011;20119;48.334;16.206;2023-02-01T16:29:05;4.30;;;2.03;;
33810;SDS011;20119;48.334;16.206;2023-02-01T16:34:02;5.35;;;2.50;;
33810;SDS011;20119;48.334;16.206;2023-02-01T16:36:29;5.30;;;2.22;;
33810;SDS011;20119;48.334;16.206;2023-02-01T16:41:32;4.97;;;2.58;;
33810;SDS011;20119;48.334;16.206;2023-02-01T16:43:59;4.40;;;2.35;;
33810;SDS011;20119;48.334;16.206;2023-02-01T16:46:26;5.53;;;2.50;;
33810;SDS011;20119;48.334;16.206;2023-02-01T16:48:59;6.03;;;2.83;;
33810;SDS011;20119;48.334;16.206;2023-02-01T16:56:39;8.07;;;2.97;;
33810;SDS011;20119;48.334;16.206;2023-02-01T16:59:07;5.78;;;3.22;;
33810;SDS011;20119;48.334;16.206;2023-02-01T17:01:34;6.03;;;3.10;;
33810;SDS011;20119;48.334;16.206;2023-02-01T17:04:04;4.97;;;2.80;;
33810;SDS011;20119;48.334;16.206;2023-02-01T17:06:31;7.85;;;3.20;;
33810;SDS011;20119;48.334;16.206;2023-02-01T17:08:58;8.48;;;3.85;;
33810;SDS011;20119;48.334;16.206;2023-02-01T17:11:27;5.55;;;3.40;;
33810;SDS011;20119;48.334;16.206;2023-02-01T17:13:55;5.07;;;3.70;;
33810;SDS011;20119;48.334;16.206;2023-02-01T17:16:24;8.45;;;3.92;;
33810;SDS011;20119;48.334;16.206;2023-02-01T17:18:54;7.03;;;3.83;;
33810;SDS011;20119;48.334;16.206;2023-02-01T17:23:53;8.90;;;4.00;;
33810;SDS011;20119;48.334;16.206;2023-02-01T17:26:22;5.50;;;3.88;;
33810;SDS011;20119;48.334;16.206;2023-02-01T17:31:25;5.68;;;4.38;;
33810;SDS011;20119;48.334;16.206;2023-02-01T17:36:19;8.27;;;4.80;;
33810;SDS011;20119;48.334;16.206;2023-02-01T17:43:58;10.20;;;5.20;;
33810;SDS011;20119;48.334;16.206;2023-02-01T17:46:25;9.43;;;5.35;;
33810;SDS011;20119;48.334;16.206;2023-02-01T17:48:53;7.43;;;5.20;;
33810;SDS011;20119;48.334;16.206;2023-02-01T17:51:21;8.02;;;5.32;;
33810;SDS011;20119;48.334;16.206;2023-02-01T17:54:12;7.25;;;4.72;;
33810;SDS011;20119;48.334;16.206;2023-02-01T17:56:41;7.32;;;4.75;;
33810;SDS011;20119;48.334;16.206;2023-02-01T17:59:10;6.70;;;4.63;;
33810;SDS011;20119;48.334;16.206;2023-02-01T18:01:39;7.75;;;4.40;;
33810;SDS011;20119;48.334;16.206;2023-02-01T18:04:07;8.35;;;4.18;;
33810;SDS011;20119;48.334;16.206;2023-02-01T18:09:12;5.50;;;4.15;;
33810;SDS011;20119;48.334;16.206;2023-02-01T18:14:16;8.15;;;4.40;;
33810;SDS011;20119;48.334;16.206;2023-02-01T18:16:43;6.00;;;4.40;;
33810;SDS011;20119;48.334;16.206;2023-02-01T18:19:10;7.82;;;4.40;;
33810;SDS011;20119;48.334;16.206;2023-02-01T18:21:38;7.93;;;4.75;;
33810;SDS011;20119;48.334;16.206;2023-02-01T18:24:08;11.63;;;4.88;;
33810;SDS011;20119;48.334;16.206;2023-02-01T18:26:37;8.20;;;4.63;;
33810;SDS011;20119;48.334;16.206;2023-02-01T18:29:05;9.02;;;4.78;;
33810;SDS011;20119;48.334;16.206;2023-02-01T18:31:34;7.90;;;4.70;;
33810;SDS011;20119;48.334;16.206;2023-02-01T18:34:05;8.80;;;5.10;;
33810;SDS011;20119;48.334;16.206;2023-02-01T18:36:34;10.25;;;5.28;;
33810;SDS011;20119;48.334;16.206;2023-02-01T18:39:02;7.90;;;5.00;;
33810;SDS011;20119;48.334;16.206;2023-02-01T18:41:29;9.68;;;5.03;;
33810;SDS011;20119;48.334;16.206;2023-02-01T18:43:56;10.40;;;5.25;;
33810;SDS011;20119;48.334;16.206;2023-02-01T18:46:22;6.95;;;4.85;;
33810;SDS011;20119;48.334;16.206;2023-02-01T18:48:51;8.40;;;5.05;;
33810;SDS011;20119;48.334;16.206;2023-02-01T18:53:53;8.98;;;4.78;;
33810;SDS011;20119;48.334;16.206;2023-02-01T18:58:56;10.70;;;5.07;;
33810;SDS011;20119;48.334;16.206;2023-02-01T19:01:24;9.85;;;4.85;;
33810;SDS011;20119;48.334;16.206;2023-02-01T19:03:52;7.78;;;4.53;;
33810;SDS011;20119;48.334;16.206;2023-02-01T19:06:19;9.13;;;4.03;;
33810;SDS011;20119;48.334;16.206;2023-02-01T19:08:46;8.13;;;4.10;;
33810;SDS011;20119;48.334;16.206;2023-02-01T19:11:15;7.82;;;4.05;;
33810;SDS011;20119;48.334;16.206;2023-02-01T19:13:42;6.25;;;3.63;;
33810;SDS011;20119;48.334;16.206;2023-02-01T19:18:44;7.75;;;4.53;;
33810;SDS011;20119;48.334;16.206;2023-02-01T19:21:18;11.25;;;4.60;;
33810;SDS011;20119;48.334;16.206;2023-02-01T19:26:39;7.30;;;4.10;;
33810;SDS011;20119;48.334;16.206;2023-02-01T19:29:06;12.05;;;4.45;;
33810;SDS011;20119;48.334;16.206;2023-02-01T19:31:33;11.52;;;4.70;;
33810;SDS011;20119;48.334;16.206;2023-02-01T19:34:00;10.05;;;4.38;;
33810;SDS011;20119;48.334;16.206;2023-02-01T19:36:28;14.30;;;4.47;;
33810;SDS011;20119;48.334;16.206;2023-02-01T19:38:55;8.60;;;4.13;;
33810;SDS011;20119;48.334;16.206;2023-02-01T19:41:22;10.95;;;4.30;;
33810;SDS011;20119;48.334;16.206;2023-02-01T19:43:49;9.27;;;4.80;;
33810;SDS011;20119;48.334;16.206;2023-02-01T19:48:51;7.13;;;3.88;;
33810;SDS011;20119;48.334;16.206;2023-02-01T19:51:18;9.82;;;4.15;;
33810;SDS011;20119;48.334;16.206;2023-02-01T19:53:46;8.43;;;4.20;;
33810;SDS011;20119;48.334;16.206;2023-02-01T19:56:13;7.28;;;4.20;;
33810;SDS011;20119;48.334;16.206;2023-02-01T20:01:15;9.60;;;4.00;;
33810;SDS011;20119;48.334;16.206;2023-02-01T20:03:43;6.50;;;4.00;;
33810;SDS011;20119;48.334;16.206;2023-02-01T20:06:10;11.13;;;4.00;;
33810;SDS011;20119;48.334;16.206;2023-02-01T20:11:15;9.60;;;3.55;;
33810;SDS011;20119;48.334;16.206;2023-02-01T20:13:42;8.82;;;3.78;;
33810;SDS011;20119;48.334;16.206;2023-02-01T20:16:09;10.32;;;3.90;;
33810;SDS011;20119;48.334;16.206;2023-02-01T20:18:36;6.30;;;3.80;;
33810;SDS011;20119;48.334;16.206;2023-02-01T20:21:03;7.68;;;3.25;;
33810;SDS011;20119;48.334;16.206;2023-02-01T20:23:30;4.68;;;2.90;;
33810;SDS011;20119;48.334;16.206;2023-02-01T20:25:59;6.82;;;3.33;;
33810;SDS011;20119;48.334;16.206;2023-02-01T20:28:28;6.57;;;3.13;;
33810;SDS011;20119;48.334;16.206;2023-02-01T20:30:56;6.28;;;3.00;;
33810;SDS011;20119;48.334;16.206;2023-02-01T20:33:23;8.18;;;3.00;;
33810;SDS011;20119;48.334;16.206;2023-02-01T20:35:51;5.55;;;2.70;;
33810;SDS011;20119;48.334;16.206;2023-02-01T20:38:18;4.45;;;2.80;;
33810;SDS011;20119;48.334;16.206;2023-02-01T20:43:20;6.88;;;2.70;;
33810;SDS011;20119;48.334;16.206;2023-02-01T20:45:49;6.38;;;2.80;;
33810;SDS011;20119;48.334;16.206;2023-02-01T20:48:16;5.20;;;2.90;;
33810;SDS011;20119;48.334;16.206;2023-02-01T20:50:43;8.70;;;3.20;;
33810;SDS011;20119;48.334;16.206;2023-02-01T20:53:10;4.68;;;2.80;;
33810;SDS011;20119;48.334;16.206;2023-02-01T20:55:37;6.30;;;2.90;;
33810;SDS011;20119;48.334;16.206;2023-02-01T20:58:03;7.45;;;3.00;;
33810;SDS011;20119;48.334;16.206;2023-02-01T21:00:30;6.88;;;3.08;;
33810;SDS011;20119;48.334;16.206;2023-02-01T21:05:36;6.65;;;3.00;;
33810;SDS011;20119;48.334;16.206;2023-02-01T21:08:06;8.52;;;3.38;;
33810;SDS011;20119;48.334;16.206;2023-02-01T21:10:34;9.60;;;3.53;;
33810;SDS011;20119;48.334;16.206;2023-02-01T21:13:01;7.10;;;3.13;;
33810;SDS011;20119;48.334;16.206;2023-02-01T21:15:28;7.47;;;3.20;;
33810;SDS011;20119;48.334;16.206;2023-02-01T21:20:33;5.88;;;2.95;;
33810;SDS011;20119;48.334;16.206;2023-02-01T21:25:38;8.35;;;3.70;;